Time;durP1;ratioP1;P1;durP2;ratioP2;P2;SDS_P1;SDS_P2;PMS_P1;PMS_P2;Temp;Humidity;BMP_temperature;BMP_pressure;BME280_temperature;BME280_humidity;BME280_pressure;Samples;Min_cycle;Max_cycle;Signal;HPM_P1;HPM_P2
2022/03/19 00:01:56;;;;;;;45.03;35.87;;;7.60;84.00;;;;;;5047214;28;20217;-89
2022/03/19 00:04:22;;;;;;;44.10;34.60;;;7.50;84.40;;;;;;5046728;28;20188;-88
2022/03/19 00:06:48;;;;;;;44.87;34.73;;;7.50;84.70;;;;;;5040219;28;20200;-91
2022/03/19 00:09:14;;;;;;;45.23;35.70;;;7.60;84.90;;;;;;5068639;28;20189;-89
2022/03/19 00:11:40;;;;;;;43.67;34.70;;;7.50;84.70;;;;;;5066380;28;20180;-89
2022/03/19 00:14:06;;;;;;;42.07;34.20;;;7.50;85.20;;;;;;5020081;28;20208;-89
2022/03/19 00:16:32;;;;;;;42.40;35.47;;;7.50;85.10;;;;;;5065432;28;20242;-89
2022/03/19 00:18:58;;;;;;;41.47;33.70;;;7.50;85.20;;;;;;5046273;28;20183;-89
2022/03/19 00:21:24;;;;;;;45.43;35.27;;;7.50;85.20;;;;;;5051719;28;20715;-89
2022/03/19 00:23:50;;;;;;;40.50;34.70;;;7.40;85.40;;;;;;5048098;28;20184;-89
2022/03/19 00:26:17;;;;;;;42.67;34.10;;;7.40;85.30;;;;;;5048237;28;20184;-89
2022/03/19 00:28:43;;;;;;;44.83;36.27;;;7.40;85.30;;;;;;5066148;28;20774;-89
2022/03/19 00:31:09;;;;;;;45.77;35.03;;;7.50;85.40;;;;;;5065697;28;20238;-89
2022/03/19 00:33:35;;;;;;;40.77;33.60;;;7.40;85.60;;;;;;5049660;28;20199;-89
2022/03/19 00:36:01;;;;;;;42.20;34.03;;;7.40;85.80;;;;;;5048355;28;20235;-88
2022/03/19 00:38:27;;;;;;;42.50;34.20;;;7.40;85.40;;;;;;5068405;28;20187;-88
2022/03/19 00:40:52;;;;;;;46.37;35.43;;;7.30;85.70;;;;;;5051597;28;20192;-90
2022/03/19 00:43:22;;;;;;;41.23;33.67;;;7.30;86.00;;;;;;5050131;28;20196;-89
2022/03/19 00:45:48;;;;;;;44.53;33.93;;;7.30;86.10;;;;;;5059145;28;20173;-90
2022/03/19 00:48:15;;;;;;;42.50;33.70;;;7.30;86.10;;;;;;5037896;28;20165;-89
2022/03/19 00:50:41;;;;;;;41.53;33.17;;;7.30;86.10;;;;;;5066348;28;20188;-90
2022/03/19 00:53:06;;;;;;;39.73;32.93;;;7.30;86.20;;;;;;5029484;28;20226;-89
2022/03/19 00:55:32;;;;;;;44.00;34.03;;;7.30;86.60;;;;;;5046549;28;20365;-89
2022/03/19 00:57:58;;;;;;;40.40;32.63;;;7.20;87.00;;;;;;5045993;28;20700;-90
2022/03/19 01:00:26;;;;;;;41.40;32.53;;;7.20;87.20;;;;;;5045927;28;20195;-90
2022/03/19 01:02:53;;;;;;;44.83;33.37;;;7.20;87.00;;;;;;5050310;28;20212;-90
2022/03/19 01:05:20;;;;;;;46.13;33.10;;;7.20;87.10;;;;;;5048665;28;20184;-89
2022/03/19 01:07:48;;;;;;;41.53;33.37;;;7.20;87.30;;;;;;5055742;28;20185;-90
2022/03/19 01:10:16;;;;;;;40.03;33.97;;;7.20;87.20;;;;;;5071326;28;20191;-89
2022/03/19 01:12:42;;;;;;;40.03;32.63;;;7.20;87.00;;;;;;5072880;28;20208;-90
2022/03/19 01:15:09;;;;;;;43.27;33.50;;;7.20;87.20;;;;;;5072653;28;20180;-89
2022/03/19 01:17:38;;;;;;;45.07;33.83;;;7.10;87.50;;;;;;5067124;28;20236;-90
2022/03/19 01:20:04;;;;;;;43.83;33.43;;;7.20;87.60;;;;;;5067625;28;20195;-88
2022/03/19 01:22:31;;;;;;;41.27;32.40;;;7.20;87.40;;;;;;5048009;28;20220;-89
2022/03/19 01:25:00;;;;;;;40.37;32.33;;;7.10;87.70;;;;;;5049503;28;20184;-88
2022/03/19 01:27:26;;;;;;;42.07;32.00;;;7.00;87.90;;;;;;5067345;28;20811;-88
2022/03/19 01:29:51;;;;;;;47.00;31.63;;;7.10;87.90;;;;;;5034696;28;20283;-87
2022/03/19 01:32:17;;;;;;;40.10;32.50;;;7.10;88.20;;;;;;5031191;28;20205;-88
2022/03/19 01:34:43;;;;;;;42.67;31.13;;;7.10;88.10;;;;;;5063111;28;20184;-87
2022/03/19 01:37:09;;;;;;;42.67;31.17;;;7.10;87.90;;;;;;5051974;28;20261;-87
2022/03/19 01:39:34;;;;;;;46.13;31.70;;;7.20;87.70;;;;;;5035323;28;20208;-87
2022/03/19 01:42:00;;;;;;;39.70;32.33;;;7.10;87.60;;;;;;5037562;28;20216;-88
2022/03/19 01:44:26;;;;;;;41.00;31.43;;;7.10;87.50;;;;;;5033730;28;20218;-87
2022/03/19 01:47:10;;;;;;;41.77;31.40;;;7.10;87.60;;;;;;5036042;28;20210;-88
2022/03/19 01:49:36;;;;;;;39.43;30.00;;;7.10;87.50;;;;;;5073065;28;20168;-88
2022/03/19 01:52:03;;;;;;;37.63;30.77;;;7.10;87.90;;;;;;5071643;28;20312;-88
2022/03/19 01:54:33;;;;;;;36.83;31.73;;;7.10;87.60;;;;;;5055588;28;20223;-88
2022/03/19 01:57:00;;;;;;;41.50;30.80;;;7.10;87.70;;;;;;5055035;28;20207;-88
2022/03/19 01:59:30;;;;;;;39.43;29.77;;;7.10;87.90;;;;;;5062859;28;20195;-88
2022/03/19 02:01:56;;;;;;;40.07;32.17;;;7.10;87.40;;;;;;5044333;28;20235;-88
2022/03/19 02:04:23;;;;;;;38.07;30.70;;;7.00;87.60;;;;;;5053314;28;20231;-87
2022/03/19 02:06:50;;;;;;;37.83;31.30;;;7.00;87.60;;;;;;5049093;28;20185;-87
2022/03/19 02:09:15;;;;;;;40.63;29.97;;;7.00;88.00;;;;;;5061137;28;20640;-87
2022/03/19 02:11:41;;;;;;;38.47;30.90;;;6.90;88.10;;;;;;5060699;28;20192;-88
2022/03/19 02:14:07;;;;;;;37.97;31.30;;;6.90;88.40;;;;;;5046954;28;20184;-87
2022/03/19 02:16:33;;;;;;;40.57;30.97;;;6.90;88.70;;;;;;5063869;28;20191;-88
2022/03/19 02:19:00;;;;;;;36.63;30.00;;;6.90;88.60;;;;;;5058955;28;20181;-87
2022/03/19 02:21:26;;;;;;;37.83;30.83;;;7.00;88.80;;;;;;5055153;28;20215;-87
2022/03/19 02:26:46;;;;;;;43.63;31.47;;;7.00;88.00;;;;;;5077533;28;20179;-87
2022/03/19 02:29:12;;;;;;;38.00;30.77;;;6.90;88.00;;;;;;5051001;28;20192;-88
2022/03/19 02:31:42;;;;;;;39.20;32.17;;;6.90;88.40;;;;;;5026604;28;20207;-87
2022/03/19 02:34:08;;;;;;;39.87;29.63;;;6.90;88.20;;;;;;5035909;28;20271;-87
2022/03/19 02:36:40;;;;;;;39.33;29.40;;;6.90;88.20;;;;;;5028018;28;20208;-87
2022/03/19 02:39:25;;;;;;;36.67;29.80;;;6.90;88.20;;;;;;5016468;28;20185;-88
2022/03/19 02:41:52;;;;;;;39.17;29.80;;;6.90;88.60;;;;;;5048419;28;20240;-88
2022/03/19 02:44:19;;;;;;;36.67;28.43;;;6.80;88.70;;;;;;5043134;28;20344;-88
2022/03/19 02:46:51;;;;;;;39.83;30.73;;;6.80;88.90;;;;;;5049453;28;20193;-88
2022/03/19 02:49:18;;;;;;;39.13;29.70;;;6.80;88.90;;;;;;5045926;28;20188;-88
2022/03/19 02:51:46;;;;;;;37.97;28.53;;;6.80;89.30;;;;;;5042250;28;20193;-87
2022/03/19 02:54:14;;;;;;;33.27;27.97;;;6.80;89.60;;;;;;5052900;28;20191;-88
2022/03/19 02:56:41;;;;;;;35.30;28.77;;;6.80;89.30;;;;;;5038558;28;20193;-88
2022/03/19 02:59:12;;;;;;;39.80;29.50;;;6.80;89.20;;;;;;5059103;28;20200;-87
2022/03/19 03:01:39;;;;;;;35.70;28.47;;;6.80;89.10;;;;;;5044375;28;20216;-87
2022/03/19 03:04:05;;;;;;;36.13;29.97;;;6.80;89.30;;;;;;5046081;28;20243;-87
2022/03/19 03:06:35;;;;;;;36.20;27.70;;;6.80;89.30;;;;;;5043184;28;20169;-87
2022/03/19 03:09:02;;;;;;;39.87;30.10;;;6.70;89.90;;;;;;5056394;28;20876;-88
2022/03/19 03:11:27;;;;;;;38.57;28.73;;;6.70;89.90;;;;;;5066201;28;20207;-87
2022/03/19 03:13:53;;;;;;;38.53;27.90;;;6.80;89.50;;;;;;5063596;28;20183;-87
2022/03/19 03:16:19;;;;;;;39.17;30.37;;;6.70;89.20;;;;;;5048182;28;20190;-87
2022/03/19 03:18:45;;;;;;;38.47;29.27;;;6.70;89.50;;;;;;5056926;28;20528;-87
2022/03/19 03:21:11;;;;;;;34.87;27.93;;;6.60;89.60;;;;;;5060676;28;20235;-87
2022/03/19 03:23:37;;;;;;;38.40;28.60;;;6.70;90.20;;;;;;5024885;28;20259;-86
2022/03/19 03:26:03;;;;;;;34.37;27.57;;;6.60;90.40;;;;;;5068741;28;20176;-87
2022/03/19 03:28:29;;;;;;;34.57;27.43;;;6.70;90.00;;;;;;5076083;28;20176;-86
2022/03/19 03:30:54;;;;;;;37.30;29.10;;;6.70;90.10;;;;;;5061051;28;20189;-87
2022/03/19 03:33:22;;;;;;;39.63;28.30;;;6.60;90.00;;;;;;5053001;28;20228;-87
2022/03/19 03:35:48;;;;;;;39.17;29.60;;;6.60;90.40;;;;;;5047825;28;20184;-87
2022/03/19 03:38:13;;;;;;;35.50;26.97;;;6.50;91.00;;;;;;5032395;28;20185;-87
2022/03/19 03:40:41;;;;;;;37.43;29.00;;;6.50;91.40;;;;;;5046160;28;20243;-87
2022/03/19 03:43:08;;;;;;;34.27;26.80;;;6.50;91.60;;;;;;5051054;28;20208;-87
2022/03/19 03:45:34;;;;;;;37.27;28.47;;;6.50;91.50;;;;;;5062562;28;20238;-87
2022/03/19 03:48:00;;;;;;;34.00;26.90;;;6.50;91.70;;;;;;5063045;28;20184;-88
2022/03/19 03:50:27;;;;;;;36.53;28.40;;;6.40;91.70;;;;;;5059624;28;20238;-87
2022/03/19 03:52:53;;;;;;;37.23;28.83;;;6.50;91.60;;;;;;5052441;28;20251;-88
2022/03/19 03:55:19;;;;;;;33.70;27.47;;;6.50;91.00;;;;;;5055324;28;20229;-88
2022/03/19 03:57:45;;;;;;;35.57;27.67;;;6.40;91.40;;;;;;5042139;28;20189;-87
2022/03/19 04:00:12;;;;;;;35.83;28.20;;;6.40;91.60;;;;;;5051177;28;20252;-87
2022/03/19 04:02:38;;;;;;;40.17;28.57;;;6.40;91.50;;;;;;5042204;28;20220;-87
2022/03/19 04:05:05;;;;;;;37.67;28.53;;;6.50;91.50;;;;;;5060596;28;20735;-87
2022/03/19 04:07:30;;;;;;;36.97;28.43;;;6.40;91.40;;;;;;5024843;28;20189;-87
2022/03/19 04:09:56;;;;;;;36.67;27.67;;;6.50;91.20;;;;;;5044183;28;20601;-87
2022/03/19 04:12:22;;;;;;;36.57;28.90;;;6.40;91.40;;;;;;5029564;28;20226;-87
2022/03/19 04:14:49;;;;;;;38.63;27.77;;;6.40;91.50;;;;;;5047383;28;20213;-87
2022/03/19 04:17:15;;;;;;;38.00;28.47;;;6.40;91.60;;;;;;5056307;28;20192;-87
2022/03/19 04:19:41;;;;;;;41.00;29.00;;;6.40;91.50;;;;;;5063561;28;20222;-87
2022/03/19 04:22:07;;;;;;;39.20;28.67;;;6.40;91.70;;;;;;5051927;28;20232;-87
2022/03/19 04:24:33;;;;;;;35.83;28.30;;;6.40;91.80;;;;;;5059118;28;20275;-88
2022/03/19 04:26:59;;;;;;;38.70;30.23;;;6.30;91.90;;;;;;5055018;28;20648;-87
2022/03/19 04:29:24;;;;;;;38.93;28.53;;;6.30;92.00;;;;;;5036445;28;20188;-87
2022/03/19 04:31:50;;;;;;;36.60;28.50;;;6.30;92.30;;;;;;5034267;28;20224;-87
2022/03/19 04:34:16;;;;;;;36.67;28.93;;;6.30;92.70;;;;;;5058681;28;20710;-87
2022/03/19 04:36:42;;;;;;;40.87;27.63;;;6.30;92.80;;;;;;5039825;28;20192;-87
2022/03/19 04:39:08;;;;;;;37.27;27.90;;;6.20;93.00;;;;;;5045713;28;20180;-87
2022/03/19 04:41:36;;;;;;;34.87;27.63;;;6.20;93.40;;;;;;5045783;28;20200;-87
2022/03/19 04:44:03;;;;;;;35.37;27.90;;;6.20;93.60;;;;;;5059549;28;20202;-87
2022/03/19 04:46:29;;;;;;;36.20;28.50;;;6.20;94.00;;;;;;5071053;28;20227;-87
2022/03/19 04:48:55;;;;;;;37.43;28.93;;;6.10;94.50;;;;;;5035682;28;20189;-87
2022/03/19 04:51:24;;;;;;;37.33;27.30;;;6.10;94.50;;;;;;5045375;28;20194;-87
2022/03/19 04:53:50;;;;;;;34.10;26.53;;;6.10;94.60;;;;;;5058807;28;20255;-87
2022/03/19 04:56:18;;;;;;;38.70;26.57;;;6.10;94.60;;;;;;5026439;28;20759;-87
2022/03/19 04:58:43;;;;;;;37.40;27.33;;;6.10;94.60;;;;;;5043633;28;20188;-87
2022/03/19 05:01:09;;;;;;;35.43;27.70;;;6.10;94.60;;;;;;5065491;28;20207;-88
2022/03/19 05:03:35;;;;;;;35.83;27.27;;;6.20;94.40;;;;;;5070704;28;20207;-88
2022/03/19 05:06:01;;;;;;;37.17;27.67;;;6.10;95.20;;;;;;5061435;28;20243;-88
2022/03/19 05:08:26;;;;;;;29.93;24.33;;;6.20;94.20;;;;;;5030357;28;20223;-87
2022/03/19 05:13:36;;;;;;;35.83;27.63;;;6.10;94.20;;;;;;5061155;28;20234;-87
2022/03/19 05:16:02;;;;;;;40.13;28.37;;;6.10;94.70;;;;;;5046233;28;20188;-87
2022/03/19 05:18:27;;;;;;;36.90;27.07;;;6.10;94.50;;;;;;5042839;28;20192;-86
2022/03/19 05:20:53;;;;;;;36.27;27.10;;;6.10;94.60;;;;;;5049718;28;20205;-87
2022/03/19 05:23:19;;;;;;;34.27;26.00;;;6.10;94.10;;;;;;5042863;28;20683;-87
2022/03/19 05:25:45;;;;;;;35.17;28.00;;;6.20;93.80;;;;;;5062085;28;20188;-87
2022/03/19 05:28:10;;;;;;;32.17;26.33;;;6.10;94.10;;;;;;5045168;28;20188;-87
2022/03/19 05:30:37;;;;;;;33.23;27.60;;;6.10;94.10;;;;;;5050908;28;20222;-87
2022/03/19 05:33:04;;;;;;;36.40;27.77;;;6.00;94.40;;;;;;5050435;28;20212;-87
2022/03/19 05:35:30;;;;;;;34.30;27.30;;;6.00;94.50;;;;;;5062641;28;20183;-87
2022/03/19 05:37:59;;;;;;;35.00;27.47;;;6.00;94.40;;;;;;5037315;28;20195;-87
2022/03/19 05:40:26;;;;;;;35.93;27.13;;;6.00;95.10;;;;;;5055607;28;20191;-87
2022/03/19 05:42:52;;;;;;;35.53;26.37;;;6.00;94.50;;;;;;5064599;28;20243;-86
2022/03/19 05:45:20;;;;;;;39.17;27.70;;;6.00;94.30;;;;;;5070664;28;20173;-87
2022/03/19 05:47:46;;;;;;;33.67;26.90;;;6.00;94.40;;;;;;5054349;28;20236;-87
2022/03/19 05:50:13;;;;;;;39.10;27.43;;;6.00;94.40;;;;;;5074452;28;20544;-87
2022/03/19 05:52:40;;;;;;;37.17;27.30;;;6.00;94.10;;;;;;5058554;28;20233;-87
2022/03/19 05:55:07;;;;;;;34.93;27.87;;;6.00;94.20;;;;;;5049324;28;20192;-87
2022/03/19 05:57:33;;;;;;;33.20;25.83;;;6.00;94.40;;;;;;5041006;28;20283;-87
2022/03/19 05:59:59;;;;;;;32.27;26.77;;;6.00;94.50;;;;;;5063394;28;20238;-87
2022/03/19 06:02:25;;;;;;;31.83;25.43;;;5.90;94.80;;;;;;5053228;28;20284;-87
2022/03/19 06:04:52;;;;;;;35.93;26.97;;;6.00;94.70;;;;;;5029440;28;20322;-87
2022/03/19 06:07:18;;;;;;;35.87;27.43;;;5.90;94.50;;;;;;5058620;28;20196;-87
2022/03/19 06:09:43;;;;;;;35.53;27.30;;;5.90;94.60;;;;;;5026395;28;20193;-87
2022/03/19 06:12:10;;;;;;;33.30;27.43;;;5.90;95.00;;;;;;5042051;28;20488;-88
2022/03/19 06:14:35;;;;;;;36.03;27.07;;;5.90;95.00;;;;;;5045542;28;20192;-88
2022/03/19 06:17:01;;;;;;;35.33;26.83;;;5.90;94.70;;;;;;5043853;28;20552;-88
2022/03/19 06:19:27;;;;;;;35.07;27.57;;;6.00;94.70;;;;;;5047816;28;20744;-88
2022/03/19 06:21:52;;;;;;;35.23;27.33;;;6.10;94.30;;;;;;5006538;28;20228;-88
2022/03/19 06:24:18;;;;;;;35.73;28.07;;;6.10;94.30;;;;;;5043712;28;20184;-88
2022/03/19 06:26:44;;;;;;;34.17;26.50;;;6.10;94.70;;;;;;5010868;28;20260;-88
2022/03/19 06:29:10;;;;;;;38.67;27.73;;;6.00;93.90;;;;;;5055896;28;20861;-88
2022/03/19 06:31:35;;;;;;;39.30;28.73;;;6.10;94.20;;;;;;5065904;28;20330;-88
2022/03/19 06:34:01;;;;;;;35.60;27.77;;;6.00;93.80;;;;;;5045231;28;20318;-88
2022/03/19 06:39:12;;;;;;;38.63;28.07;;;6.10;93.70;;;;;;5052966;28;20223;-88
2022/03/19 06:41:38;;;;;;;35.00;26.80;;;6.10;93.40;;;;;;5015888;28;20212;-88
2022/03/19 06:44:04;;;;;;;31.80;26.07;;;6.10;93.50;;;;;;5045399;28;20203;-88
2022/03/19 06:46:33;;;;;;;33.93;26.73;;;6.20;93.20;;;;;;5066697;28;20208;-88
2022/03/19 06:48:58;;;;;;;39.80;28.23;;;6.20;92.90;;;;;;5032323;28;20480;-87
2022/03/19 06:51:24;;;;;;;38.70;29.83;;;6.20;92.40;;;;;;5049424;28;20180;-88
2022/03/19 06:53:50;;;;;;;36.27;27.27;;;6.30;92.10;;;;;;5049180;28;20283;-87
2022/03/19 06:56:16;;;;;;;37.27;28.07;;;6.20;92.50;;;;;;5066914;28;20240;-88
2022/03/19 06:58:43;;;;;;;33.77;26.17;;;6.30;92.20;;;;;;5065354;28;20180;-88
2022/03/19 07:01:14;;;;;;;35.93;28.77;;;6.20;92.00;;;;;;5049246;28;20211;-88
2022/03/19 07:03:44;;;;;;;36.00;29.20;;;6.30;91.60;;;;;;5059982;28;20232;-88
2022/03/19 07:06:11;;;;;;;37.30;27.20;;;6.30;91.10;;;;;;5060540;28;20168;-88
2022/03/19 07:08:36;;;;;;;37.23;28.73;;;6.40;90.50;;;;;;5047297;28;20197;-82
2022/03/19 07:11:02;;;;;;;37.10;28.57;;;6.40;90.30;;;;;;5049663;28;20796;-87
2022/03/19 07:13:28;;;;;;;40.63;29.63;;;6.40;90.30;;;;;;5031647;28;20212;-87
2022/03/19 07:15:54;;;;;;;35.07;28.07;;;6.50;89.60;;;;;;5056964;28;20180;-87
2022/03/19 07:18:20;;;;;;;36.57;28.30;;;6.60;89.40;;;;;;5044684;28;20212;-87
2022/03/19 07:20:45;;;;;;;33.70;28.03;;;6.60;88.90;;;;;;5054441;28;20196;-87
2022/03/19 07:23:11;;;;;;;31.23;27.70;;;6.70;88.70;;;;;;5057660;28;20246;-88
2022/03/19 07:25:40;;;;;;;37.30;29.60;;;6.80;87.60;;;;;;5061144;28;20189;-88
2022/03/19 07:28:12;;;;;;;34.47;27.43;;;6.80;87.20;;;;;;5040090;28;20216;-88
2022/03/19 07:30:38;;;;;;;32.43;27.73;;;6.90;86.50;;;;;;5045244;28;20177;-88
2022/03/19 07:33:05;;;;;;;35.30;29.17;;;6.90;85.90;;;;;;5057343;28;20219;-87
2022/03/19 07:35:30;;;;;;;34.33;27.53;;;6.90;86.10;;;;;;5031098;28;20203;-88
2022/03/19 07:38:00;;;;;;;33.13;26.43;;;7.00;85.50;;;;;;5056377;28;20197;-87
2022/03/19 07:43:13;;;;;;;34.87;27.37;;;7.10;84.80;;;;;;5055669;28;20325;-88
2022/03/19 07:45:40;;;;;;;34.83;27.03;;;7.20;83.90;;;;;;5047079;28;20185;-88
2022/03/19 07:48:07;;;;;;;33.27;25.50;;;7.20;82.90;;;;;;5052112;28;20177;-88
2022/03/19 07:50:33;;;;;;;34.80;26.93;;;7.30;83.40;;;;;;5037984;28;20306;-88
2022/03/19 07:52:59;;;;;;;34.83;26.33;;;7.40;82.30;;;;;;5033641;28;20220;-88
2022/03/19 07:55:25;;;;;;;33.53;25.57;;;7.40;82.10;;;;;;5046486;28;20561;-88
2022/03/19 07:57:51;;;;;;;35.33;27.67;;;7.50;81.70;;;;;;5031019;28;20283;-88
2022/03/19 08:00:17;;;;;;;31.30;25.60;;;7.50;81.10;;;;;;5042396;28;20193;-88
2022/03/19 08:02:43;;;;;;;34.67;26.07;;;7.60;80.90;;;;;;5072474;28;20319;-88
2022/03/19 08:05:11;;;;;;;30.57;24.80;;;7.70;80.70;;;;;;5053430;28;20171;-88
2022/03/19 08:07:37;;;;;;;33.10;24.53;;;7.80;79.50;;;;;;5078135;28;20237;-88
2022/03/19 08:10:08;;;;;;;32.73;24.17;;;7.80;78.90;;;;;;5062849;28;20212;-88
2022/03/19 08:12:35;;;;;;;29.03;23.33;;;7.80;78.60;;;;;;5028746;28;20212;-88
2022/03/19 08:15:02;;;;;;;32.60;23.20;;;7.90;77.50;;;;;;5047974;28;20196;-88
2022/03/19 08:17:28;;;;;;;33.80;24.37;;;8.00;77.60;;;;;;5044453;28;20262;-88
2022/03/19 08:19:58;;;;;;;33.83;24.37;;;8.00;76.40;;;;;;5045201;28;20200;-87
2022/03/19 08:22:25;;;;;;;31.20;24.80;;;8.00;75.30;;;;;;5056837;28;20284;-88
2022/03/19 08:24:52;;;;;;;33.67;23.13;;;8.10;74.80;;;;;;5033484;28;20212;-88
2022/03/19 08:27:18;;;;;;;33.83;23.33;;;8.20;74.30;;;;;;5053865;28;20191;-88
2022/03/19 08:29:44;;;;;;;27.13;22.83;;;8.30;74.60;;;;;;5030571;28;20247;-88
2022/03/19 08:32:10;;;;;;;26.53;22.73;;;8.30;72.70;;;;;;5054650;28;20212;-89
2022/03/19 08:34:37;;;;;;;30.33;23.27;;;8.30;72.50;;;;;;5051392;28;20803;-89
2022/03/19 08:37:04;;;;;;;29.40;22.97;;;8.40;72.70;;;;;;5058882;28;20228;-88
2022/03/19 08:42:14;;;;;;;28.90;23.33;;;8.60;70.40;;;;;;5051124;28;20251;-89
2022/03/19 08:44:40;;;;;;;29.90;24.20;;;8.60;69.80;;;;;;5050585;28;20187;-88
2022/03/19 08:47:06;;;;;;;29.73;24.13;;;8.70;69.00;;;;;;5049017;28;20208;-89
2022/03/19 08:49:32;;;;;;;28.27;23.03;;;8.80;67.30;;;;;;5043921;28;20198;-89
2022/03/19 08:51:58;;;;;;;31.07;22.50;;;8.90;67.60;;;;;;5030330;28;20927;-88
2022/03/19 08:54:24;;;;;;;31.13;23.97;;;9.00;67.10;;;;;;5027108;28;20296;-88
2022/03/19 08:56:51;;;;;;;28.57;24.00;;;9.00;66.20;;;;;;5055535;28;20196;-88
2022/03/19 08:59:19;;;;;;;25.00;22.30;;;9.20;65.70;;;;;;5030427;28;20216;-87
2022/03/19 09:01:47;;;;;;;30.67;23.67;;;9.20;65.10;;;;;;5054198;28;20239;-88
2022/03/19 09:04:13;;;;;;;28.43;23.53;;;9.20;65.10;;;;;;5049240;28;20185;-88
2022/03/19 09:06:39;;;;;;;31.07;24.43;;;9.40;64.70;;;;;;5044534;28;20279;-88
2022/03/19 09:09:05;;;;;;;28.80;23.63;;;9.40;63.60;;;;;;5043212;28;20196;-88
2022/03/19 09:11:33;;;;;;;30.10;23.00;;;9.40;65.10;;;;;;5051508;28;20556;-88
2022/03/19 09:14:00;;;;;;;28.33;23.53;;;9.60;65.10;;;;;;5040255;28;20223;-88
2022/03/19 09:16:26;;;;;;;27.63;23.47;;;9.80;63.80;;;;;;5009280;28;20199;-87
2022/03/19 09:18:52;;;;;;;30.83;24.80;;;10.00;62.40;;;;;;5048925;28;20184;-88
2022/03/19 09:21:18;;;;;;;33.07;24.20;;;10.10;61.20;;;;;;5054026;28;20240;-88
2022/03/19 09:23:49;;;;;;;31.13;24.93;;;10.10;61.50;;;;;;5057469;28;20282;-88
2022/03/19 09:26:16;;;;;;;30.07;25.23;;;10.00;61.40;;;;;;5044724;28;20184;-88
2022/03/19 09:28:42;;;;;;;31.90;25.27;;;10.10;60.90;;;;;;5058221;28;20238;-88
2022/03/19 09:31:08;;;;;;;27.67;24.67;;;10.20;60.50;;;;;;5047520;28;20200;-88
2022/03/19 09:33:34;;;;;;;27.47;23.77;;;10.30;61.30;;;;;;5056223;28;20204;-88
2022/03/19 09:36:01;;;;;;;30.23;24.40;;;10.50;60.20;;;;;;5063026;28;20191;-88
2022/03/19 09:38:29;;;;;;;28.67;25.47;;;10.60;59.70;;;;;;5050545;28;20199;-88
2022/03/19 09:40:56;;;;;;;29.33;24.63;;;10.60;58.90;;;;;;5033790;28;20189;-88
2022/03/19 09:43:23;;;;;;;29.20;25.50;;;10.70;58.50;;;;;;5034482;28;20303;-88
2022/03/19 09:45:49;;;;;;;34.90;25.73;;;10.90;58.40;;;;;;5021263;28;20200;-86
2022/03/19 09:48:15;;;;;;;26.93;23.67;;;11.10;57.50;;;;;;5064578;28;20192;-88
2022/03/19 09:50:41;;;;;;;30.80;26.90;;;11.10;57.70;;;;;;5064898;28;20207;-89
2022/03/19 09:53:09;;;;;;;30.23;25.97;;;11.20;56.90;;;;;;5029287;28;20247;-88
2022/03/19 09:55:39;;;;;;;32.97;28.07;;;11.20;56.30;;;;;;5060665;28;20203;-88
2022/03/19 09:58:05;;;;;;;30.73;25.50;;;11.30;55.70;;;;;;5046897;28;20690;-88
2022/03/19 10:00:31;;;;;;;31.47;25.97;;;11.50;55.50;;;;;;5058521;28;20185;-88
2022/03/19 10:03:02;;;;;;;29.97;26.83;;;11.70;53.90;;;;;;5048498;28;20220;-88
2022/03/19 10:08:37;;;;;;;31.03;27.03;;;11.90;53.90;;;;;;5048383;28;20311;-88
2022/03/19 10:11:14;;;;;;;32.87;26.93;;;12.00;51.90;;;;;;5044573;28;20188;-88
2022/03/19 10:13:42;;;;;;;30.57;26.67;;;12.00;52.30;;;;;;5046252;28;20230;-88
2022/03/19 10:16:09;;;;;;;31.30;27.83;;;12.00;51.90;;;;;;5050377;28;20203;-88
2022/03/19 10:18:36;;;;;;;31.63;27.90;;;12.10;52.40;;;;;;5067873;28;20650;-88
2022/03/19 10:21:15;;;;;;;33.13;28.10;;;12.20;52.10;;;;;;5068222;28;20169;-89
2022/03/19 10:23:42;;;;;;;31.50;28.13;;;12.30;51.50;;;;;;5051068;28;20216;-88
2022/03/19 10:26:21;;;;;;;33.10;29.53;;;12.40;50.40;;;;;;5050062;28;20182;-88
2022/03/19 10:28:56;;;;;;;34.03;30.23;;;12.40;50.50;;;;;;5067851;28;20186;-87
2022/03/19 10:31:29;;;;;;;36.33;32.17;;;12.70;50.80;;;;;;5050751;28;20169;-89
2022/03/19 10:33:55;;;;;;;33.47;29.07;;;12.90;50.70;;;;;;5049518;28;20184;-89
2022/03/19 10:36:35;;;;;;;38.53;31.47;;;12.80;50.20;;;;;;5067033;28;20219;-89
2022/03/19 10:39:11;;;;;;;34.30;30.73;;;12.90;51.30;;;;;;5029936;28;20181;-89
2022/03/19 10:41:38;;;;;;;37.27;31.93;;;13.10;49.70;;;;;;5047510;28;20283;-89
2022/03/19 10:44:16;;;;;;;37.73;32.80;;;13.10;49.20;;;;;;5047739;28;20196;-89
2022/03/19 10:46:53;;;;;;;35.83;32.03;;;13.30;49.00;;;;;;5047830;28;20187;-89
2022/03/19 10:49:23;;;;;;;40.33;31.70;;;13.30;49.80;;;;;;5048624;28;20198;-89
2022/03/19 10:51:54;;;;;;;45.73;34.60;;;13.30;49.40;;;;;;5045841;28;20218;-90
2022/03/19 10:54:22;;;;;;;38.27;32.33;;;13.50;48.90;;;;;;5049552;28;20182;-89
2022/03/19 10:56:49;;;;;;;37.63;33.40;;;13.30;48.60;;;;;;5067756;28;20255;-88
2022/03/19 10:59:15;;;;;;;37.93;33.97;;;13.70;48.40;;;;;;5067746;28;20209;-88
2022/03/19 11:01:41;;;;;;;40.37;34.10;;;13.80;47.00;;;;;;5050345;28;20206;-88
2022/03/19 11:04:09;;;;;;;38.53;34.40;;;14.00;46.00;;;;;;5071446;28;20179;-88
2022/03/19 11:06:40;;;;;;;40.07;33.17;;;13.80;46.00;;;;;;5052827;28;20183;-89
2022/03/19 11:09:11;;;;;;;38.50;32.97;;;13.90;45.50;;;;;;5049565;28;20184;-88
2022/03/19 11:11:58;;;;;;;39.67;32.77;;;14.10;44.30;;;;;;5066987;28;20180;-87
2022/03/19 11:14:28;;;;;;;35.13;31.43;;;14.40;42.60;;;;;;5060627;28;20198;-85
2022/03/19 11:17:24;;;;;;;35.53;31.70;;;14.70;42.30;;;;;;5029176;28;20192;-87
2022/03/19 11:19:54;;;;;;;36.07;32.43;;;14.80;41.10;;;;;;5046930;28;20165;-87
2022/03/19 11:22:21;;;;;;;37.37;33.63;;;14.90;41.50;;;;;;5046798;28;20219;-87
2022/03/19 11:25:08;;;;;;;32.93;29.53;;;15.00;40.60;;;;;;5047300;28;20235;-88
2022/03/19 11:27:41;;;;;;;33.30;30.17;;;15.00;39.60;;;;;;5030646;28;20689;-88
2022/03/19 11:30:18;;;;;;;34.43;29.53;;;14.80;40.90;;;;;;5029594;28;20181;-89
2022/03/19 11:33:05;;;;;;;30.77;27.53;;;15.00;39.40;;;;;;5046869;28;20200;-88
2022/03/19 11:35:33;;;;;;;31.63;28.23;;;15.00;38.90;;;;;;5030271;28;20220;-88
2022/03/19 11:38:11;;;;;;;32.13;27.63;;;15.00;37.70;;;;;;5047045;28;20188;-88
2022/03/19 11:40:38;;;;;;;29.77;26.70;;;15.00;38.50;;;;;;5046502;28;20162;-87
2022/03/19 11:43:05;;;;;;;28.57;25.60;;;15.40;37.70;;;;;;5046923;28;20267;-88
2022/03/19 11:45:54;;;;;;;28.40;25.43;;;15.40;37.60;;;;;;5052415;28;20177;-88
2022/03/19 11:48:35;;;;;;;30.80;27.70;;;15.60;37.40;;;;;;5070784;28;20193;-88
2022/03/19 11:51:18;;;;;;;28.07;25.23;;;15.70;37.60;;;;;;5067832;28;20223;-88
2022/03/19 11:53:54;;;;;;;27.90;25.03;;;15.90;37.10;;;;;;5049879;28;20232;-88
2022/03/19 11:56:22;;;;;;;29.27;22.37;;;16.00;36.20;;;;;;5061906;28;20284;-86
2022/03/19 11:58:48;;;;;;;21.73;17.43;;;15.90;36.20;;;;;;5062344;28;20374;-87
2022/03/19 12:01:14;;;;;;;19.00;17.00;;;16.00;35.20;;;;;;5037026;28;20253;-87
2022/03/19 12:04:05;;;;;;;17.60;15.83;;;16.10;36.10;;;;;;5063055;28;20227;-88
2022/03/19 12:06:33;;;;;;;17.83;15.93;;;16.20;34.20;;;;;;5056807;28;20184;-88
2022/03/19 12:08:59;;;;;;;18.83;16.93;;;16.20;34.00;;;;;;5059976;28;20185;-88
2022/03/19 12:11:25;;;;;;;18.83;16.83;;;15.90;34.90;;;;;;5026992;28;20469;-88
2022/03/19 12:13:51;;;;;;;18.53;16.27;;;16.00;35.50;;;;;;5043340;28;20301;-89
2022/03/19 12:16:40;;;;;;;17.50;14.50;;;16.30;35.00;;;;;;5060078;28;20190;-89
2022/03/19 12:19:06;;;;;;;15.33;12.80;;;16.30;33.70;;;;;;5050453;28;20196;-90
2022/03/19 12:21:37;;;;;;;14.90;13.40;;;16.60;33.70;;;;;;5025972;28;20223;-89
2022/03/19 12:24:06;;;;;;;16.03;14.17;;;16.60;33.40;;;;;;5060022;28;20344;-89
2022/03/19 12:26:43;;;;;;;12.33;10.97;;;16.80;32.60;;;;;;5047842;28;20197;-89
2022/03/19 12:29:11;;;;;;;13.60;11.63;;;16.30;32.30;;;;;;5044851;28;20180;-89
2022/03/19 12:31:41;;;;;;;16.40;12.47;;;16.20;33.00;;;;;;5054556;28;20183;-89
2022/03/19 12:34:15;;;;;;;13.37;11.97;;;16.00;34.00;;;;;;5039583;28;20190;-89
2022/03/19 12:36:40;;;;;;;12.87;11.57;;;16.20;34.20;;;;;;5043879;28;20191;-89
2022/03/19 12:39:06;;;;;;;13.70;11.73;;;17.10;34.20;;;;;;5057555;28;20232;-89
2022/03/19 12:41:33;;;;;;;13.43;9.87;;;17.30;32.00;;;;;;5041487;28;20220;-90
2022/03/19 12:44:00;;;;;;;15.03;10.30;;;17.10;30.00;;;;;;5030343;28;20195;-88
2022/03/19 12:46:27;;;;;;;10.83;9.73;;;16.50;30.70;;;;;;5062498;28;20200;-89
2022/03/19 12:49:04;;;;;;;11.57;9.43;;;16.20;31.30;;;;;;5053413;28;20245;-88
2022/03/19 12:51:31;;;;;;;11.40;9.00;;;16.70;30.30;;;;;;5029515;28;20233;-91
2022/03/19 12:53:57;;;;;;;9.90;8.90;;;17.00;30.50;;;;;;5041252;28;20192;-89